sensor_id;sensor_type;location;lat;lon;timestamp;P1;durP1;ratioP1;P2;durP2;ratioP2
52248;SDS011;38541;48.130;8.378;2024-02-23T00:02:10;0.40;;;0.40;;
52248;SDS011;38541;48.130;8.378;2024-02-23T00:04:36;0.60;;;0.40;;
52248;SDS011;38541;48.130;8.378;2024-02-23T00:07:03;0.40;;;0.40;;
52248;SDS011;38541;48.130;8.378;2024-02-23T00:09:30;0.50;;;0.50;;
52248;SDS011;38541;48.130;8.378;2024-02-23T00:11:56;0.50;;;0.50;;
52248;SDS011;38541;48.130;8.378;2024-02-23T00:14:23;0.40;;;0.40;;
52248;SDS011;38541;48.130;8.378;2024-02-23T00:16:49;0.45;;;0.45;;
52248;SDS011;38541;48.130;8.378;2024-02-23T00:19:16;0.40;;;0.40;;
52248;SDS011;38541;48.130;8.378;2024-02-23T00:21:44;1.20;;;0.52;;
52248;SDS011;38541;48.130;8.378;2024-02-23T00:24:16;0.50;;;0.50;;
52248;SDS011;38541;48.130;8.378;2024-02-23T00:26:43;0.50;;;0.50;;
52248;SDS011;38541;48.130;8.378;2024-02-23T00:29:10;0.40;;;0.40;;
52248;SDS011;38541;48.130;8.378;2024-02-23T00:31:37;0.45;;;0.45;;
52248;SDS011;38541;48.130;8.378;2024-02-23T00:34:07;0.40;;;0.40;;
52248;SDS011;38541;48.130;8.378;2024-02-23T00:36:38;0.90;;;0.90;;
52248;SDS011;38541;48.130;8.378;2024-02-23T00:39:05;1.10;;;1.00;;
52248;SDS011;38541;48.130;8.378;2024-02-23T00:41:36;0.60;;;0.60;;
52248;SDS011;38541;48.130;8.378;2024-02-23T00:44:03;0.40;;;0.40;;
52248;SDS011;38541;48.130;8.378;2024-02-23T00:46:30;0.35;;;0.35;;
52248;SDS011;38541;48.130;8.378;2024-02-23T00:48:56;0.40;;;0.40;;
52248;SDS011;38541;48.130;8.378;2024-02-23T00:51:23;0.50;;;0.50;;
52248;SDS011;38541;48.130;8.378;2024-02-23T00:53:49;0.75;;;0.63;;
52248;SDS011;38541;48.130;8.378;2024-02-23T00:56:16;5.50;;;2.58;;
52248;SDS011;38541;48.130;8.378;2024-02-23T00:58:42;6.63;;;3.55;;
52248;SDS011;38541;48.130;8.378;2024-02-23T01:01:09;6.18;;;3.50;;
52248;SDS011;38541;48.130;8.378;2024-02-23T01:03:35;14.38;;;8.57;;
52248;SDS011;38541;48.130;8.378;2024-02-23T01:06:02;19.35;;;10.88;;
52248;SDS011;38541;48.130;8.378;2024-02-23T01:08:29;4.32;;;3.03;;
52248;SDS011;38541;48.130;8.378;2024-02-23T01:10:55;1.17;;;0.77;;
52248;SDS011;38541;48.130;8.378;2024-02-23T01:13:22;1.08;;;0.90;;
52248;SDS011;38541;48.130;8.378;2024-02-23T01:15:48;0.50;;;0.50;;
52248;SDS011;38541;48.130;8.378;2024-02-23T01:18:15;0.90;;;0.70;;
52248;SDS011;38541;48.130;8.378;2024-02-23T01:20:42;1.83;;;0.60;;
52248;SDS011;38541;48.130;8.378;2024-02-23T01:23:08;1.52;;;0.75;;
52248;SDS011;38541;48.130;8.378;2024-02-23T01:25:35;0.60;;;0.60;;
52248;SDS011;38541;48.130;8.378;2024-02-23T01:28:01;0.68;;;0.68;;
52248;SDS011;38541;48.130;8.378;2024-02-23T01:30:29;0.57;;;0.55;;
52248;SDS011;38541;48.130;8.378;2024-02-23T01:32:56;1.15;;;0.60;;
52248;SDS011;38541;48.130;8.378;2024-02-23T01:35:22;1.10;;;0.60;;
52248;SDS011;38541;48.130;8.378;2024-02-23T01:37:49;0.68;;;0.63;;
52248;SDS011;38541;48.130;8.378;2024-02-23T01:40:15;0.70;;;0.70;;
52248;SDS011;38541;48.130;8.378;2024-02-23T01:42:42;0.60;;;0.60;;
52248;SDS011;38541;48.130;8.378;2024-02-23T01:45:08;0.77;;;0.77;;
52248;SDS011;38541;48.130;8.378;2024-02-23T01:47:35;0.60;;;0.60;;
52248;SDS011;38541;48.130;8.378;2024-02-23T01:50:01;0.80;;;0.80;;
52248;SDS011;38541;48.130;8.378;2024-02-23T01:52:29;0.80;;;0.80;;
52248;SDS011;38541;48.130;8.378;2024-02-23T01:54:56;0.80;;;0.60;;
52248;SDS011;38541;48.130;8.378;2024-02-23T01:57:23;0.70;;;0.70;;
52248;SDS011;38541;48.130;8.378;2024-02-23T02:00:10;0.60;;;0.60;;
52248;SDS011;38541;48.130;8.378;2024-02-23T02:02:45;0.80;;;0.80;;
52248;SDS011;38541;48.130;8.378;2024-02-23T02:05:16;0.60;;;0.60;;
52248;SDS011;38541;48.130;8.378;2024-02-23T02:07:42;0.60;;;0.60;;
52248;SDS011;38541;48.130;8.378;2024-02-23T02:10:09;1.00;;;0.68;;
52248;SDS011;38541;48.130;8.378;2024-02-23T02:12:36;0.95;;;0.63;;
52248;SDS011;38541;48.130;8.378;2024-02-23T02:15:03;0.75;;;0.75;;
52248;SDS011;38541;48.130;8.378;2024-02-23T02:17:30;1.23;;;0.70;;
52248;SDS011;38541;48.130;8.378;2024-02-23T02:20:02;0.80;;;0.70;;
52248;SDS011;38541;48.130;8.378;2024-02-23T02:22:33;1.33;;;0.73;;
52248;SDS011;38541;48.130;8.378;2024-02-23T02:25:00;1.00;;;1.00;;
52248;SDS011;38541;48.130;8.378;2024-02-23T02:27:26;0.80;;;0.80;;
52248;SDS011;38541;48.130;8.378;2024-02-23T02:29:53;0.73;;;0.68;;
52248;SDS011;38541;48.130;8.378;2024-02-23T02:32:19;0.82;;;0.82;;
52248;SDS011;38541;48.130;8.378;2024-02-23T02:34:46;1.08;;;0.80;;
52248;SDS011;38541;48.130;8.378;2024-02-23T02:37:13;2.05;;;0.80;;
52248;SDS011;38541;48.130;8.378;2024-02-23T02:39:39;1.08;;;1.00;;
52248;SDS011;38541;48.130;8.378;2024-02-23T02:42:06;3.17;;;0.93;;
52248;SDS011;38541;48.130;8.378;2024-02-23T02:44:32;0.93;;;0.93;;
52248;SDS011;38541;48.130;8.378;2024-02-23T02:46:59;1.52;;;0.90;;
52248;SDS011;38541;48.130;8.378;2024-02-23T02:49:25;2.30;;;0.73;;
52248;SDS011;38541;48.130;8.378;2024-02-23T02:51:52;1.30;;;0.80;;
52248;SDS011;38541;48.130;8.378;2024-02-23T02:54:18;1.52;;;0.90;;
52248;SDS011;38541;48.130;8.378;2024-02-23T02:56:47;0.70;;;0.70;;
52248;SDS011;38541;48.130;8.378;2024-02-23T02:59:14;1.80;;;0.80;;
52248;SDS011;38541;48.130;8.378;2024-02-23T03:01:40;1.45;;;1.00;;
52248;SDS011;38541;48.130;8.378;2024-02-23T03:04:08;0.80;;;0.80;;
52248;SDS011;38541;48.130;8.378;2024-02-23T03:06:35;3.08;;;1.13;;
52248;SDS011;38541;48.130;8.378;2024-02-23T03:09:01;0.80;;;0.68;;
52248;SDS011;38541;48.130;8.378;2024-02-23T03:11:29;0.75;;;0.70;;
52248;SDS011;38541;48.130;8.378;2024-02-23T03:13:55;0.77;;;0.77;;
52248;SDS011;38541;48.130;8.378;2024-02-23T03:16:22;0.80;;;0.80;;
52248;SDS011;38541;48.130;8.378;2024-02-23T03:18:56;0.70;;;0.70;;
52248;SDS011;38541;48.130;8.378;2024-02-23T03:21:23;5.32;;;1.15;;
52248;SDS011;38541;48.130;8.378;2024-02-23T03:23:50;0.90;;;0.80;;
52248;SDS011;38541;48.130;8.378;2024-02-23T03:26:16;1.17;;;0.85;;
52248;SDS011;38541;48.130;8.378;2024-02-23T03:28:43;0.70;;;0.70;;
52248;SDS011;38541;48.130;8.378;2024-02-23T03:31:10;1.08;;;0.70;;
52248;SDS011;38541;48.130;8.378;2024-02-23T03:33:36;0.75;;;0.75;;
52248;SDS011;38541;48.130;8.378;2024-02-23T03:36:03;1.20;;;0.82;;
52248;SDS011;38541;48.130;8.378;2024-02-23T03:38:30;1.25;;;1.00;;
52248;SDS011;38541;48.130;8.378;2024-02-23T03:40:58;1.60;;;1.00;;
52248;SDS011;38541;48.130;8.378;2024-02-23T03:43:25;1.70;;;1.00;;
52248;SDS011;38541;48.130;8.378;2024-02-23T03:45:51;1.20;;;0.95;;
52248;SDS011;38541;48.130;8.378;2024-02-23T03:48:18;0.73;;;0.73;;
52248;SDS011;38541;48.130;8.378;2024-02-23T03:50:45;0.80;;;0.80;;
52248;SDS011;38541;48.130;8.378;2024-02-23T03:53:12;0.90;;;0.90;;
52248;SDS011;38541;48.130;8.378;2024-02-23T03:55:38;1.25;;;1.05;;
52248;SDS011;38541;48.130;8.378;2024-02-23T03:58:05;1.73;;;0.88;;
52248;SDS011;38541;48.130;8.378;2024-02-23T04:00:32;1.38;;;0.98;;
52248;SDS011;38541;48.130;8.378;2024-02-23T04:02:59;1.50;;;1.10;;
52248;SDS011;38541;48.130;8.378;2024-02-23T04:05:25;1.55;;;1.27;;
52248;SDS011;38541;48.130;8.378;2024-02-23T04:07:52;2.08;;;1.25;;
52248;SDS011;38541;48.130;8.378;2024-02-23T04:10:18;1.42;;;0.90;;
52248;SDS011;38541;48.130;8.378;2024-02-23T04:12:46;0.90;;;0.90;;
52248;SDS011;38541;48.130;8.378;2024-02-23T04:15:13;0.80;;;0.80;;
52248;SDS011;38541;48.130;8.378;2024-02-23T04:17:40;1.52;;;0.80;;
52248;SDS011;38541;48.130;8.378;2024-02-23T04:20:07;1.02;;;0.90;;
52248;SDS011;38541;48.130;8.378;2024-02-23T04:22:36;1.63;;;0.90;;
52248;SDS011;38541;48.130;8.378;2024-02-23T04:25:04;2.92;;;1.10;;
52248;SDS011;38541;48.130;8.378;2024-02-23T04:27:31;0.90;;;0.80;;
52248;SDS011;38541;48.130;8.378;2024-02-23T04:29:58;3.08;;;1.23;;
52248;SDS011;38541;48.130;8.378;2024-02-23T04:32:24;0.75;;;0.75;;
52248;SDS011;38541;48.130;8.378;2024-02-23T04:34:51;1.23;;;0.75;;
52248;SDS011;38541;48.130;8.378;2024-02-23T04:37:17;1.00;;;0.90;;
52248;SDS011;38541;48.130;8.378;2024-02-23T04:39:44;1.48;;;0.85;;
52248;SDS011;38541;48.130;8.378;2024-02-23T04:42:11;1.35;;;0.85;;
52248;SDS011;38541;48.130;8.378;2024-02-23T04:44:37;1.00;;;1.00;;
52248;SDS011;38541;48.130;8.378;2024-02-23T04:47:04;2.40;;;0.70;;
52248;SDS011;38541;48.130;8.378;2024-02-23T04:49:31;2.13;;;0.90;;
52248;SDS011;38541;48.130;8.378;2024-02-23T04:51:57;1.15;;;0.82;;
52248;SDS011;38541;48.130;8.378;2024-02-23T04:54:24;2.53;;;1.20;;
52248;SDS011;38541;48.130;8.378;2024-02-23T04:56:51;1.00;;;0.90;;
52248;SDS011;38541;48.130;8.378;2024-02-23T04:59:17;3.75;;;1.13;;
52248;SDS011;38541;48.130;8.378;2024-02-23T05:01:44;1.00;;;0.90;;
52248;SDS011;38541;48.130;8.378;2024-02-23T05:04:10;1.02;;;0.93;;
52248;SDS011;38541;48.130;8.378;2024-02-23T05:06:37;1.58;;;1.00;;
52248;SDS011;38541;48.130;8.378;2024-02-23T05:09:05;1.30;;;1.00;;
52248;SDS011;38541;48.130;8.378;2024-02-23T05:11:35;3.33;;;1.50;;
52248;SDS011;38541;48.130;8.378;2024-02-23T05:14:02;2.50;;;1.13;;
52248;SDS011;38541;48.130;8.378;2024-02-23T05:16:29;1.00;;;0.82;;
52248;SDS011;38541;48.130;8.378;2024-02-23T05:18:55;0.80;;;0.80;;
52248;SDS011;38541;48.130;8.378;2024-02-23T05:21:22;1.35;;;1.08;;
52248;SDS011;38541;48.130;8.378;2024-02-23T05:23:48;1.40;;;1.00;;
52248;SDS011;38541;48.130;8.378;2024-02-23T05:26:15;1.88;;;0.90;;
52248;SDS011;38541;48.130;8.378;2024-02-23T05:28:41;2.95;;;1.10;;
52248;SDS011;38541;48.130;8.378;2024-02-23T05:31:09;1.20;;;1.08;;
52248;SDS011;38541;48.130;8.378;2024-02-23T05:33:36;3.42;;;1.20;;
52248;SDS011;38541;48.130;8.378;2024-02-23T05:36:04;2.08;;;1.10;;
52248;SDS011;38541;48.130;8.378;2024-02-23T05:38:31;1.45;;;0.98;;
52248;SDS011;38541;48.130;8.378;2024-02-23T05:40:58;2.42;;;1.17;;
52248;SDS011;38541;48.130;8.378;2024-02-23T05:43:25;1.38;;;1.10;;
52248;SDS011;38541;48.130;8.378;2024-02-23T05:45:51;1.45;;;1.00;;
52248;SDS011;38541;48.130;8.378;2024-02-23T05:48:18;1.08;;;0.95;;
52248;SDS011;38541;48.130;8.378;2024-02-23T05:50:45;1.60;;;1.20;;
52248;SDS011;38541;48.130;8.378;2024-02-23T05:53:12;1.30;;;1.00;;
52248;SDS011;38541;48.130;8.378;2024-02-23T05:55:38;1.23;;;1.00;;
52248;SDS011;38541;48.130;8.378;2024-02-23T05:58:05;1.23;;;0.90;;
52248;SDS011;38541;48.130;8.378;2024-02-23T06:00:31;2.50;;;0.90;;
52248;SDS011;38541;48.130;8.378;2024-02-23T06:02:58;2.05;;;1.00;;
52248;SDS011;38541;48.130;8.378;2024-02-23T06:05:25;1.65;;;0.80;;
52248;SDS011;38541;48.130;8.378;2024-02-23T06:07:54;0.77;;;0.75;;
52248;SDS011;38541;48.130;8.378;2024-02-23T06:10:21;1.17;;;1.05;;
52248;SDS011;38541;48.130;8.378;2024-02-23T06:12:47;1.27;;;0.90;;
52248;SDS011;38541;48.130;8.378;2024-02-23T06:15:14;2.53;;;1.27;;
52248;SDS011;38541;48.130;8.378;2024-02-23T06:17:41;3.05;;;1.00;;
52248;SDS011;38541;48.130;8.378;2024-02-23T06:20:07;1.20;;;1.10;;
52248;SDS011;38541;48.130;8.378;2024-02-23T06:22:35;2.42;;;1.50;;
52248;SDS011;38541;48.130;8.378;2024-02-23T06:25:01;1.20;;;1.00;;
52248;SDS011;38541;48.130;8.378;2024-02-23T06:27:28;8.05;;;1.05;;
52248;SDS011;38541;48.130;8.378;2024-02-23T06:29:56;2.40;;;1.05;;
52248;SDS011;38541;48.130;8.378;2024-02-23T06:32:22;2.03;;;1.02;;
52248;SDS011;38541;48.130;8.378;2024-02-23T06:34:49;1.98;;;1.20;;
52248;SDS011;38541;48.130;8.378;2024-02-23T06:37:16;1.75;;;1.00;;
52248;SDS011;38541;48.130;8.378;2024-02-23T06:39:42;3.47;;;1.65;;
52248;SDS011;38541;48.130;8.378;2024-02-23T06:42:10;1.10;;;0.93;;
52248;SDS011;38541;48.130;8.378;2024-02-23T06:44:36;2.60;;;1.20;;
52248;SDS011;38541;48.130;8.378;2024-02-23T06:47:03;3.95;;;1.25;;
52248;SDS011;38541;48.130;8.378;2024-02-23T06:49:30;1.50;;;1.05;;
52248;SDS011;38541;48.130;8.378;2024-02-23T06:51:57;2.80;;;1.42;;
52248;SDS011;38541;48.130;8.378;2024-02-23T06:54:23;3.72;;;1.27;;
52248;SDS011;38541;48.130;8.378;2024-02-23T06:56:50;1.00;;;0.90;;
52248;SDS011;38541;48.130;8.378;2024-02-23T06:59:17;2.33;;;1.85;;
52248;SDS011;38541;48.130;8.378;2024-02-23T07:01:50;4.43;;;1.15;;
52248;SDS011;38541;48.130;8.378;2024-02-23T07:04:18;1.25;;;1.00;;
52248;SDS011;38541;48.130;8.378;2024-02-23T07:06:44;1.85;;;1.00;;
52248;SDS011;38541;48.130;8.378;2024-02-23T07:09:11;3.03;;;1.00;;
52248;SDS011;38541;48.130;8.378;2024-02-23T07:11:39;2.38;;;1.00;;
52248;SDS011;38541;48.130;8.378;2024-02-23T07:14:07;4.22;;;1.17;;
52248;SDS011;38541;48.130;8.378;2024-02-23T07:16:38;1.52;;;0.90;;
52248;SDS011;38541;48.130;8.378;2024-02-23T07:19:06;4.22;;;1.35;;
52248;SDS011;38541;48.130;8.378;2024-02-23T07:21:33;2.72;;;1.02;;
52248;SDS011;38541;48.130;8.378;2024-02-23T07:24:00;2.38;;;1.30;;
52248;SDS011;38541;48.130;8.378;2024-02-23T07:26:26;2.75;;;1.27;;
52248;SDS011;38541;48.130;8.378;2024-02-23T07:28:55;1.10;;;0.98;;
52248;SDS011;38541;48.130;8.378;2024-02-23T07:31:22;2.40;;;1.33;;
52248;SDS011;38541;48.130;8.378;2024-02-23T07:33:48;1.48;;;1.20;;
52248;SDS011;38541;48.130;8.378;2024-02-23T07:36:15;4.60;;;1.35;;
52248;SDS011;38541;48.130;8.378;2024-02-23T07:38:42;2.50;;;1.67;;
52248;SDS011;38541;48.130;8.378;2024-02-23T07:41:14;1.48;;;1.33;;
52248;SDS011;38541;48.130;8.378;2024-02-23T07:43:41;3.80;;;1.40;;
52248;SDS011;38541;48.130;8.378;2024-02-23T07:46:08;3.75;;;1.40;;
52248;SDS011;38541;48.130;8.378;2024-02-23T07:48:35;1.42;;;1.05;;
52248;SDS011;38541;48.130;8.378;2024-02-23T07:51:03;1.42;;;1.13;;
52248;SDS011;38541;48.130;8.378;2024-02-23T07:53:31;2.88;;;1.08;;
52248;SDS011;38541;48.130;8.378;2024-02-23T07:55:59;3.85;;;1.33;;
52248;SDS011;38541;48.130;8.378;2024-02-23T07:58:28;2.63;;;1.55;;
52248;SDS011;38541;48.130;8.378;2024-02-23T08:00:54;2.80;;;1.52;;
52248;SDS011;38541;48.130;8.378;2024-02-23T08:03:21;4.53;;;2.13;;
52248;SDS011;38541;48.130;8.378;2024-02-23T08:05:47;4.22;;;2.00;;
52248;SDS011;38541;48.130;8.378;2024-02-23T08:08:14;4.78;;;1.70;;
52248;SDS011;38541;48.130;8.378;2024-02-23T08:10:40;3.53;;;1.85;;
52248;SDS011;38541;48.130;8.378;2024-02-23T08:13:07;4.18;;;2.30;;
52248;SDS011;38541;48.130;8.378;2024-02-23T08:15:36;4.60;;;1.70;;
52248;SDS011;38541;48.130;8.378;2024-02-23T08:18:02;4.60;;;2.25;;
52248;SDS011;38541;48.130;8.378;2024-02-23T08:20:29;4.10;;;2.00;;
52248;SDS011;38541;48.130;8.378;2024-02-23T08:22:56;4.55;;;1.55;;
52248;SDS011;38541;48.130;8.378;2024-02-23T08:25:23;2.33;;;1.45;;
52248;SDS011;38541;48.130;8.378;2024-02-23T08:27:49;1.85;;;1.40;;
52248;SDS011;38541;48.130;8.378;2024-02-23T08:30:16;4.53;;;1.85;;
52248;SDS011;38541;48.130;8.378;2024-02-23T08:32:42;6.90;;;2.00;;
52248;SDS011;38541;48.130;8.378;2024-02-23T08:35:09;5.55;;;2.13;;
52248;SDS011;38541;48.130;8.378;2024-02-23T08:37:36;5.55;;;1.50;;
52248;SDS011;38541;48.130;8.378;2024-02-23T08:40:04;4.35;;;1.90;;
52248;SDS011;38541;48.130;8.378;2024-02-23T08:42:32;4.03;;;1.63;;
52248;SDS011;38541;48.130;8.378;2024-02-23T08:44:58;2.08;;;1.15;;
52248;SDS011;38541;48.130;8.378;2024-02-23T08:47:25;4.57;;;1.80;;
52248;SDS011;38541;48.130;8.378;2024-02-23T08:49:58;4.30;;;1.60;;
52248;SDS011;38541;48.130;8.378;2024-02-23T08:52:24;3.03;;;1.52;;
52248;SDS011;38541;48.130;8.378;2024-02-23T08:54:51;1.88;;;1.10;;
52248;SDS011;38541;48.130;8.378;2024-02-23T08:57:18;4.85;;;2.22;;
52248;SDS011;38541;48.130;8.378;2024-02-23T08:59:46;2.05;;;1.48;;
52248;SDS011;38541;48.130;8.378;2024-02-23T09:02:13;3.08;;;2.10;;
52248;SDS011;38541;48.130;8.378;2024-02-23T09:04:40;1.95;;;1.48;;
52248;SDS011;38541;48.130;8.378;2024-02-23T09:07:06;5.57;;;1.60;;
52248;SDS011;38541;48.130;8.378;2024-02-23T09:09:33;3.85;;;1.50;;
52248;SDS011;38541;48.130;8.378;2024-02-23T09:11:59;4.68;;;1.38;;
52248;SDS011;38541;48.130;8.378;2024-02-23T09:14:26;6.82;;;1.80;;
52248;SDS011;38541;48.130;8.378;2024-02-23T09:16:52;3.45;;;1.80;;
52248;SDS011;38541;48.130;8.378;2024-02-23T09:19:19;1.98;;;1.40;;
52248;SDS011;38541;48.130;8.378;2024-02-23T09:21:47;3.45;;;1.75;;
52248;SDS011;38541;48.130;8.378;2024-02-23T09:24:13;3.20;;;1.83;;
52248;SDS011;38541;48.130;8.378;2024-02-23T09:26:40;9.27;;;2.03;;
52248;SDS011;38541;48.130;8.378;2024-02-23T09:29:07;2.85;;;1.65;;
52248;SDS011;38541;48.130;8.378;2024-02-23T09:31:34;4.57;;;1.50;;
52248;SDS011;38541;48.130;8.378;2024-02-23T09:34:00;3.58;;;1.50;;
52248;SDS011;38541;48.130;8.378;2024-02-23T09:36:27;3.33;;;1.42;;
52248;SDS011;38541;48.130;8.378;2024-02-23T09:38:54;3.50;;;1.55;;
52248;SDS011;38541;48.130;8.378;2024-02-23T09:41:21;1.55;;;1.30;;
52248;SDS011;38541;48.130;8.378;2024-02-23T09:43:49;1.48;;;1.33;;
52248;SDS011;38541;48.130;8.378;2024-02-23T09:46:16;2.85;;;1.52;;
52248;SDS011;38541;48.130;8.378;2024-02-23T09:48:43;4.00;;;1.40;;
52248;SDS011;38541;48.130;8.378;2024-02-23T09:51:14;2.53;;;1.40;;
52248;SDS011;38541;48.130;8.378;2024-02-23T09:53:41;3.85;;;1.67;;
52248;SDS011;38541;48.130;8.378;2024-02-23T09:56:09;5.82;;;1.58;;
52248;SDS011;38541;48.130;8.378;2024-02-23T09:58:36;3.13;;;1.40;;
52248;SDS011;38541;48.130;8.378;2024-02-23T10:01:04;3.50;;;1.50;;
52248;SDS011;38541;48.130;8.378;2024-02-23T10:03:30;5.88;;;1.98;;
52248;SDS011;38541;48.130;8.378;2024-02-23T10:05:58;4.13;;;1.30;;
52248;SDS011;38541;48.130;8.378;2024-02-23T10:08:26;3.33;;;1.67;;
52248;SDS011;38541;48.130;8.378;2024-02-23T10:10:56;3.63;;;1.40;;
52248;SDS011;38541;48.130;8.378;2024-02-23T10:13:23;3.03;;;1.50;;
52248;SDS011;38541;48.130;8.378;2024-02-23T10:15:53;4.03;;;1.77;;
52248;SDS011;38541;48.130;8.378;2024-02-23T10:18:39;2.00;;;1.05;;
52248;SDS011;38541;48.130;8.378;2024-02-23T10:21:06;2.60;;;1.75;;
52248;SDS011;38541;48.130;8.378;2024-02-23T10:23:33;2.40;;;1.27;;
52248;SDS011;38541;48.130;8.378;2024-02-23T10:26:04;3.97;;;1.70;;
52248;SDS011;38541;48.130;8.378;2024-02-23T10:28:32;2.50;;;1.20;;
52248;SDS011;38541;48.130;8.378;2024-02-23T10:30:58;3.30;;;1.27;;
52248;SDS011;38541;48.130;8.378;2024-02-23T10:33:27;2.28;;;1.20;;
52248;SDS011;38541;48.130;8.378;2024-02-23T10:35:56;2.40;;;1.13;;
52248;SDS011;38541;48.130;8.378;2024-02-23T10:38:24;3.33;;;1.83;;
52248;SDS011;38541;48.130;8.378;2024-02-23T10:40:53;4.18;;;1.30;;
52248;SDS011;38541;48.130;8.378;2024-02-23T10:43:24;3.25;;;1.20;;
52248;SDS011;38541;48.130;8.378;2024-02-23T10:45:57;5.18;;;1.50;;
52248;SDS011;38541;48.130;8.378;2024-02-23T10:48:26;2.25;;;1.05;;
52248;SDS011;38541;48.130;8.378;2024-02-23T10:50:53;4.50;;;2.25;;
52248;SDS011;38541;48.130;8.378;2024-02-23T10:53:22;2.50;;;1.23;;
52248;SDS011;38541;48.130;8.378;2024-02-23T10:55:51;7.97;;;2.30;;
52248;SDS011;38541;48.130;8.378;2024-02-23T10:58:23;4.57;;;1.70;;
52248;SDS011;38541;48.130;8.378;2024-02-23T11:00:49;3.00;;;1.55;;
52248;SDS011;38541;48.130;8.378;2024-02-23T11:03:16;2.15;;;1.30;;
52248;SDS011;38541;48.130;8.378;2024-02-23T11:05:47;2.90;;;1.50;;
52248;SDS011;38541;48.130;8.378;2024-02-23T11:08:18;3.45;;;1.33;;
52248;SDS011;38541;48.130;8.378;2024-02-23T11:10:49;5.90;;;2.30;;
52248;SDS011;38541;48.130;8.378;2024-02-23T11:13:17;6.70;;;1.60;;
52248;SDS011;38541;48.130;8.378;2024-02-23T11:15:44;6.10;;;2.15;;
52248;SDS011;38541;48.130;8.378;2024-02-23T11:18:21;2.70;;;1.30;;
52248;SDS011;38541;48.130;8.378;2024-02-23T11:20:54;1.35;;;1.10;;
52248;SDS011;38541;48.130;8.378;2024-02-23T11:23:22;0.70;;;0.70;;
52248;SDS011;38541;48.130;8.378;2024-02-23T11:28:50;1.63;;;0.90;;
52248;SDS011;38541;48.130;8.378;2024-02-23T11:31:24;2.15;;;1.17;;
52248;SDS011;38541;48.130;8.378;2024-02-23T11:33:55;1.10;;;0.85;;
52248;SDS011;38541;48.130;8.378;2024-02-23T11:36:23;3.03;;;1.35;;
52248;SDS011;38541;48.130;8.378;2024-02-23T11:38:53;0.80;;;0.80;;
52248;SDS011;38541;48.130;8.378;2024-02-23T11:41:23;3.28;;;1.10;;
52248;SDS011;38541;48.130;8.378;2024-02-23T11:43:51;3.15;;;1.50;;
52248;SDS011;38541;48.130;8.378;2024-02-23T11:46:18;3.33;;;1.33;;
52248;SDS011;38541;48.130;8.378;2024-02-23T11:48:46;1.80;;;1.20;;
52248;SDS011;38541;48.130;8.378;2024-02-23T11:51:13;1.55;;;0.98;;
52248;SDS011;38541;48.130;8.378;2024-02-23T11:53:41;1.98;;;1.25;;
52248;SDS011;38541;48.130;8.378;2024-02-23T11:56:09;1.27;;;0.90;;
52248;SDS011;38541;48.130;8.378;2024-02-23T11:58:36;1.70;;;1.40;;
52248;SDS011;38541;48.130;8.378;2024-02-23T12:01:03;1.70;;;1.15;;
52248;SDS011;38541;48.130;8.378;2024-02-23T12:03:30;8.52;;;1.52;;
52248;SDS011;38541;48.130;8.378;2024-02-23T12:05:57;2.10;;;1.17;;
52248;SDS011;38541;48.130;8.378;2024-02-23T12:08:25;2.40;;;0.95;;
52248;SDS011;38541;48.130;8.378;2024-02-23T12:10:54;2.00;;;1.15;;
52248;SDS011;38541;48.130;8.378;2024-02-23T12:13:21;2.38;;;1.10;;
52248;SDS011;38541;48.130;8.378;2024-02-23T12:15:49;1.48;;;0.90;;
52248;SDS011;38541;48.130;8.378;2024-02-23T12:18:22;2.92;;;1.00;;
52248;SDS011;38541;48.130;8.378;2024-02-23T12:20:52;1.73;;;1.00;;
52248;SDS011;38541;48.130;8.378;2024-02-23T12:23:19;2.45;;;1.23;;
52248;SDS011;38541;48.130;8.378;2024-02-23T12:25:58;1.77;;;0.90;;
52248;SDS011;38541;48.130;8.378;2024-02-23T12:28:25;1.88;;;1.20;;
52248;SDS011;38541;48.130;8.378;2024-02-23T12:31:01;1.05;;;0.80;;
52248;SDS011;38541;48.130;8.378;2024-02-23T12:33:29;2.05;;;0.82;;
52248;SDS011;38541;48.130;8.378;2024-02-23T12:35:58;5.10;;;2.92;;
52248;SDS011;38541;48.130;8.378;2024-02-23T12:38:25;6.70;;;1.92;;
52248;SDS011;38541;48.130;8.378;2024-02-23T12:40:52;6.18;;;1.52;;
52248;SDS011;38541;48.130;8.378;2024-02-23T12:43:19;2.70;;;1.10;;
52248;SDS011;38541;48.130;8.378;2024-02-23T12:45:50;2.00;;;1.33;;
52248;SDS011;38541;48.130;8.378;2024-02-23T12:48:18;1.60;;;1.20;;
52248;SDS011;38541;48.130;8.378;2024-02-23T12:50:45;2.90;;;1.10;;
52248;SDS011;38541;48.130;8.378;2024-02-23T12:53:18;3.28;;;1.05;;
52248;SDS011;38541;48.130;8.378;2024-02-23T12:55:58;3.05;;;1.30;;
52248;SDS011;38541;48.130;8.378;2024-02-23T12:58:26;5.65;;;1.17;;
52248;SDS011;38541;48.130;8.378;2024-02-23T13:00:52;1.33;;;1.02;;
52248;SDS011;38541;48.130;8.378;2024-02-23T13:03:19;2.42;;;1.00;;
52248;SDS011;38541;48.130;8.378;2024-02-23T13:05:46;2.15;;;0.90;;
52248;SDS011;38541;48.130;8.378;2024-02-23T13:08:13;3.03;;;1.05;;
52248;SDS011;38541;48.130;8.378;2024-02-23T13:10:39;4.10;;;1.20;;
52248;SDS011;38541;48.130;8.378;2024-02-23T13:13:06;2.22;;;0.88;;
52248;SDS011;38541;48.130;8.378;2024-02-23T13:15:33;1.95;;;1.13;;
52248;SDS011;38541;48.130;8.378;2024-02-23T13:17:59;1.20;;;1.10;;
52248;SDS011;38541;48.130;8.378;2024-02-23T13:20:26;1.08;;;0.98;;
52248;SDS011;38541;48.130;8.378;2024-02-23T13:22:52;0.93;;;0.82;;
52248;SDS011;38541;48.130;8.378;2024-02-23T13:25:19;1.67;;;1.20;;
52248;SDS011;38541;48.130;8.378;2024-02-23T13:27:45;1.10;;;0.90;;
52248;SDS011;38541;48.130;8.378;2024-02-23T13:30:12;2.75;;;1.20;;
52248;SDS011;38541;48.130;8.378;2024-02-23T13:32:39;2.40;;;1.13;;
52248;SDS011;38541;48.130;8.378;2024-02-23T13:35:06;3.25;;;1.55;;
52248;SDS011;38541;48.130;8.378;2024-02-23T13:37:33;3.78;;;1.60;;
52248;SDS011;38541;48.130;8.378;2024-02-23T13:40:01;1.95;;;0.88;;
52248;SDS011;38541;48.130;8.378;2024-02-23T13:42:27;2.88;;;1.10;;
52248;SDS011;38541;48.130;8.378;2024-02-23T13:44:54;1.48;;;0.80;;
52248;SDS011;38541;48.130;8.378;2024-02-23T13:47:23;3.35;;;1.30;;
52248;SDS011;38541;48.130;8.378;2024-02-23T13:49:49;1.33;;;1.00;;
52248;SDS011;38541;48.130;8.378;2024-02-23T13:52:16;1.05;;;0.95;;
52248;SDS011;38541;48.130;8.378;2024-02-23T13:54:42;1.83;;;1.00;;
52248;SDS011;38541;48.130;8.378;2024-02-23T13:57:09;1.88;;;1.27;;
52248;SDS011;38541;48.130;8.378;2024-02-23T13:59:35;2.15;;;1.25;;
52248;SDS011;38541;48.130;8.378;2024-02-23T14:02:02;1.17;;;0.90;;
52248;SDS011;38541;48.130;8.378;2024-02-23T14:04:29;3.45;;;0.98;;
52248;SDS011;38541;48.130;8.378;2024-02-23T14:06:55;2.33;;;1.08;;
52248;SDS011;38541;48.130;8.378;2024-02-23T14:09:22;2.70;;;1.20;;
52248;SDS011;38541;48.130;8.378;2024-02-23T14:11:48;3.78;;;1.20;;
52248;SDS011;38541;48.130;8.378;2024-02-23T14:14:15;0.65;;;0.65;;
52248;SDS011;38541;48.130;8.378;2024-02-23T14:16:42;1.48;;;0.93;;
52248;SDS011;38541;48.130;8.378;2024-02-23T14:19:09;0.80;;;0.80;;
52248;SDS011;38541;48.130;8.378;2024-02-23T14:21:36;1.45;;;0.65;;
52248;SDS011;38541;48.130;8.378;2024-02-23T14:24:03;2.42;;;1.10;;
52248;SDS011;38541;48.130;8.378;2024-02-23T14:26:30;1.90;;;1.17;;
52248;SDS011;38541;48.130;8.378;2024-02-23T14:28:56;2.55;;;1.48;;
52248;SDS011;38541;48.130;8.378;2024-02-23T14:31:25;2.78;;;1.25;;
52248;SDS011;38541;48.130;8.378;2024-02-23T14:33:52;1.73;;;0.85;;
52248;SDS011;38541;48.130;8.378;2024-02-23T14:36:18;2.15;;;0.90;;
52248;SDS011;38541;48.130;8.378;2024-02-23T14:38:45;2.33;;;1.27;;
52248;SDS011;38541;48.130;8.378;2024-02-23T14:41:12;1.20;;;1.10;;
52248;SDS011;38541;48.130;8.378;2024-02-23T14:43:38;3.33;;;1.00;;
52248;SDS011;38541;48.130;8.378;2024-02-23T14:46:05;1.38;;;1.05;;
52248;SDS011;38541;48.130;8.378;2024-02-23T14:48:31;1.20;;;1.10;;
52248;SDS011;38541;48.130;8.378;2024-02-23T14:50:58;5.78;;;1.13;;
52248;SDS011;38541;48.130;8.378;2024-02-23T14:53:25;2.03;;;0.95;;